createdAt,value
2023-04-07T00:01:04.572Z,6.30
2023-04-07T00:04:32.534Z,6.30
2023-04-07T00:07:57.124Z,6.30
2023-04-07T00:11:19.101Z,6.30
2023-04-07T00:14:42.149Z,6.20
2023-04-07T00:18:03.966Z,6.20
2023-04-07T00:21:25.704Z,6.20
2023-04-07T00:24:47.326Z,6.20
2023-04-07T00:28:08.897Z,6.20
2023-04-07T00:31:31.862Z,6.10
2023-04-07T00:34:53.495Z,6.10
2023-04-07T00:38:15.080Z,6.10
2023-04-07T00:41:36.615Z,6.10
2023-04-07T00:44:58.157Z,6.00
2023-04-07T00:48:21.228Z,6.00
2023-04-07T00:51:42.788Z,6.00
2023-04-07T00:55:05.004Z,6.10
2023-04-07T00:58:26.573Z,6.00
2023-04-07T01:01:50.897Z,6.10
2023-04-07T01:05:16.100Z,6.10
2023-04-07T01:08:39.668Z,6.20
2023-04-07T01:12:05.055Z,6.20
2023-04-07T01:15:27.513Z,6.20
2023-04-07T01:18:50.982Z,6.20
2023-04-07T01:22:16.322Z,6.30
2023-04-07T01:26:07.822Z,6.30
2023-04-07T01:29:37.174Z,6.30
2023-04-07T01:32:59.737Z,6.20
2023-04-07T01:36:21.970Z,6.20
2023-04-07T01:39:43.766Z,6.10
2023-04-07T01:43:06.017Z,6.00
2023-04-07T01:46:28.992Z,6.00
2023-04-07T01:49:51.073Z,6.00
2023-04-07T01:53:13.428Z,6.00
2023-04-07T01:56:35.000Z,6.00
2023-04-07T01:59:56.535Z,6.10
2023-04-07T02:03:21.407Z,6.10
2023-04-07T02:06:47.530Z,6.10
2023-04-07T02:10:11.827Z,6.10
2023-04-07T02:13:34.043Z,6.10
2023-04-07T02:16:56.099Z,6.10
2023-04-07T02:20:19.977Z,6.10
2023-04-07T02:23:41.544Z,6.10
2023-04-07T02:27:03.112Z,6.10
2023-04-07T02:30:24.786Z,6.10
2023-04-07T02:33:46.369Z,6.10
2023-04-07T02:37:09.351Z,6.10
2023-04-07T02:40:31.022Z,6.10
2023-04-07T02:43:52.841Z,6.20
2023-04-07T02:47:14.523Z,6.30
2023-04-07T02:50:36.066Z,6.30
2023-04-07T02:53:58.976Z,6.30
2023-04-07T02:57:20.551Z,6.30
2023-04-07T03:00:42.122Z,6.30
2023-04-07T03:04:03.809Z,6.30
2023-04-07T03:07:25.496Z,6.40
2023-04-07T03:10:48.373Z,6.40
2023-04-07T03:14:09.927Z,6.40
2023-04-07T03:17:31.662Z,6.50
2023-04-07T03:20:53.347Z,6.50
2023-04-07T03:24:14.998Z,6.50
2023-04-07T03:27:37.929Z,6.50
2023-04-07T03:30:59.523Z,6.50
2023-04-07T03:34:21.083Z,6.50
2023-04-07T03:37:42.640Z,6.50
2023-04-07T03:41:04.238Z,6.50
2023-04-07T03:44:27.176Z,6.50
2023-04-07T03:47:48.735Z,6.50
2023-04-07T03:51:10.358Z,6.50
2023-04-07T03:54:31.939Z,6.50
2023-04-07T03:57:53.540Z,6.50
2023-04-07T04:01:16.494Z,6.50
2023-04-07T04:04:38.192Z,6.50
2023-04-07T04:07:59.862Z,6.50
2023-04-07T04:11:21.434Z,6.50
2023-04-07T04:14:42.999Z,6.40
2023-04-07T04:18:05.919Z,6.50
2023-04-07T04:21:27.527Z,6.50
2023-04-07T04:24:49.099Z,6.50
2023-04-07T04:28:10.701Z,6.50
2023-04-07T04:31:32.305Z,6.50
2023-04-07T04:34:55.201Z,6.40
2023-04-07T04:38:16.759Z,6.40
2023-04-07T04:41:38.311Z,6.40
2023-04-07T04:44:59.972Z,6.30
2023-04-07T04:48:21.547Z,6.30
2023-04-07T04:51:44.430Z,6.30
2023-04-07T04:55:08.711Z,6.30
2023-04-07T04:58:30.273Z,6.30
2023-04-07T05:01:51.897Z,6.20
2023-04-07T05:05:13.682Z,6.30
2023-04-07T05:08:36.714Z,6.30
2023-04-07T05:11:58.268Z,6.30
2023-04-07T05:15:20.268Z,6.40
2023-04-07T05:18:42.384Z,6.30
2023-04-07T05:22:04.142Z,6.30
2023-04-07T05:25:27.122Z,6.30
2023-04-07T05:28:48.725Z,6.30
2023-04-07T05:32:10.619Z,6.30
2023-04-07T05:35:32.203Z,6.30
2023-04-07T05:38:54.134Z,6.30
2023-04-07T05:42:17.093Z,6.30
2023-04-07T05:45:38.712Z,6.40
2023-04-07T05:49:07.128Z,6.40
2023-04-07T05:52:40.221Z,6.50
2023-04-07T05:56:01.828Z,6.60
2023-04-07T05:59:24.896Z,6.70
2023-04-07T06:02:46.817Z,6.80
2023-04-07T06:06:09.281Z,6.80
2023-04-07T06:09:31.073Z,6.90
2023-04-07T06:12:52.640Z,6.90
2023-04-07T06:16:17.375Z,7.00
2023-04-07T06:19:39.852Z,7.10
2023-04-07T06:23:01.417Z,7.10
2023-04-07T06:26:22.998Z,7.20
2023-04-07T06:29:44.552Z,7.20
2023-04-07T06:33:07.481Z,7.20
2023-04-07T06:36:29.122Z,7.20
2023-04-07T06:39:50.751Z,7.20
2023-04-07T06:43:12.889Z,7.20
2023-04-07T06:46:34.679Z,7.30
2023-04-07T06:49:57.689Z,7.40
2023-04-07T06:53:19.303Z,7.50
2023-04-07T06:56:41.565Z,7.60
2023-04-07T07:00:03.627Z,7.70
2023-04-07T07:03:25.786Z,7.90
2023-04-07T07:06:48.892Z,8.00
2023-04-07T07:10:11.486Z,8.10
2023-04-07T07:13:33.084Z,8.20
2023-04-07T07:16:54.629Z,8.40
2023-04-07T07:20:16.207Z,8.60
2023-04-07T07:23:39.172Z,8.80
2023-04-07T07:27:00.751Z,9.10
2023-04-07T07:30:23.241Z,9.30
2023-04-07T07:33:44.820Z,9.80
2023-04-07T07:37:06.514Z,10.10
2023-04-07T07:40:29.511Z,10.10
2023-04-07T07:43:51.106Z,10.40
2023-04-07T07:47:12.814Z,10.60
2023-04-07T07:50:34.394Z,10.70
2023-04-07T07:53:56.001Z,10.90
2023-04-07T07:57:18.896Z,11.30
2023-04-07T08:00:40.606Z,11.90
2023-04-07T08:04:02.435Z,12.40
2023-04-07T08:07:24.115Z,13.00
2023-04-07T08:10:45.719Z,13.40
2023-04-07T08:14:09.902Z,15.00
2023-04-07T08:17:31.732Z,15.90
2023-04-07T08:20:53.306Z,17.40
2023-04-07T08:24:14.858Z,18.30
2023-04-07T08:30:59.676Z,20.90
2023-04-07T08:34:21.264Z,21.60
2023-04-07T08:37:42.846Z,21.00
2023-04-07T08:41:07.572Z,21.40
2023-04-07T08:44:29.722Z,21.40
2023-04-07T08:47:54.747Z,21.00
2023-04-07T08:51:22.083Z,21.10
2023-04-07T08:54:43.772Z,20.80
2023-04-07T08:58:05.650Z,20.80
2023-04-07T09:01:27.493Z,20.70
2023-04-07T09:04:50.581Z,20.80
2023-04-07T09:08:12.155Z,21.20
2023-04-07T09:11:35.218Z,22.10
2023-04-07T09:14:57.041Z,22.30
2023-04-07T09:18:19.036Z,21.50
2023-04-07T09:21:51.400Z,21.40
2023-04-07T09:25:14.234Z,22.00
2023-04-07T09:28:40.957Z,22.60
2023-04-07T09:32:02.557Z,21.60
2023-04-07T09:35:24.408Z,21.20
2023-04-07T09:38:47.318Z,20.30
2023-04-07T09:42:08.887Z,19.60
2023-04-07T09:45:35.003Z,19.30
2023-04-07T09:49:02.271Z,18.40
2023-04-07T09:52:25.848Z,17.60
2023-04-07T09:55:49.263Z,17.20
2023-04-07T09:59:10.932Z,16.50
2023-04-07T10:02:32.850Z,16.10
2023-04-07T10:05:54.510Z,16.10
2023-04-07T10:09:16.416Z,16.20
2023-04-07T10:12:39.695Z,16.30
2023-04-07T10:16:03.205Z,16.20
2023-04-07T10:19:25.455Z,16.00
2023-04-07T10:22:48.108Z,16.10
2023-04-07T10:26:09.771Z,16.20
2023-04-07T10:29:35.302Z,16.20
2023-04-07T10:32:57.202Z,16.20
2023-04-07T10:36:19.202Z,16.00
2023-04-07T10:39:40.777Z,15.90
2023-04-07T10:43:02.690Z,15.60
2023-04-07T10:46:25.671Z,15.50
2023-04-07T10:50:05.636Z,15.30
2023-04-07T10:53:27.200Z,15.00
2023-04-07T10:57:21.705Z,14.80
2023-04-07T11:01:03.267Z,14.60
2023-04-07T11:04:36.187Z,14.90
2023-04-07T11:07:57.909Z,14.70
2023-04-07T11:11:21.318Z,14.30
2023-04-07T11:14:42.893Z,13.90
2023-04-07T11:18:08.892Z,13.70
2023-04-07T11:21:31.824Z,13.30
2023-04-07T11:24:53.369Z,12.70
2023-04-07T11:28:15.358Z,12.30
2023-04-07T11:31:36.989Z,11.90
2023-04-07T11:34:58.607Z,11.50
2023-04-07T11:38:22.199Z,11.40
2023-04-07T11:41:45.992Z,11.30
2023-04-07T11:45:16.247Z,11.30
2023-04-07T11:48:38.536Z,11.30
2023-04-07T11:52:01.089Z,11.20
2023-04-07T11:55:24.003Z,11.10
2023-04-07T11:58:48.378Z,11.10
2023-04-07T12:02:10.214Z,11.30
2023-04-07T12:05:41.526Z,11.30
2023-04-07T12:09:03.600Z,11.40
2023-04-07T12:12:26.918Z,11.40
2023-04-07T12:15:48.470Z,11.30
2023-04-07T12:19:10.039Z,11.20
2023-04-07T12:22:31.645Z,11.10
2023-04-07T12:25:53.253Z,11.00
2023-04-07T12:29:16.324Z,11.00
2023-04-07T12:32:38.060Z,11.00
2023-04-07T12:35:59.748Z,10.80
2023-04-07T12:39:21.334Z,10.70
2023-04-07T12:42:42.932Z,10.70
2023-04-07T12:46:05.886Z,10.80
2023-04-07T12:49:27.456Z,10.80
2023-04-07T12:52:49.021Z,10.70
2023-04-07T12:56:10.656Z,10.60
2023-04-07T12:59:32.233Z,10.50
2023-04-07T13:02:55.360Z,10.50
2023-04-07T13:06:17.077Z,10.40
2023-04-07T13:09:38.642Z,10.30
2023-04-07T13:13:00.411Z,10.30
2023-04-07T13:16:22.007Z,10.30
2023-04-07T13:19:45.090Z,10.20
2023-04-07T13:23:09.566Z,10.20
2023-04-07T13:26:31.718Z,10.20
2023-04-07T13:29:55.072Z,10.30
2023-04-07T13:33:16.700Z,10.40
2023-04-07T13:36:39.612Z,10.50
2023-04-07T13:40:01.221Z,10.70
2023-04-07T13:43:22.879Z,10.80
2023-04-07T13:46:44.431Z,11.10
2023-04-07T13:50:06.439Z,11.10
2023-04-07T13:53:29.329Z,11.30
2023-04-07T13:56:50.898Z,11.40
2023-04-07T14:00:13.097Z,11.50
2023-04-07T14:03:34.729Z,11.60
2023-04-07T14:06:56.335Z,11.70
2023-04-07T14:10:19.363Z,11.80
2023-04-07T14:13:40.924Z,11.80
2023-04-07T14:17:02.485Z,11.80
2023-04-07T14:20:25.900Z,11.90
2023-04-07T14:23:48.707Z,12.00
2023-04-07T14:27:11.605Z,12.30
2023-04-07T14:30:35.292Z,12.40
2023-04-07T14:33:56.842Z,12.60
2023-04-07T14:37:18.386Z,12.60
2023-04-07T14:40:40.072Z,12.60
2023-04-07T14:44:03.277Z,12.50
2023-04-07T14:47:24.877Z,12.70
2023-04-07T14:50:47.654Z,12.80
2023-04-07T14:54:09.336Z,12.70
2023-04-07T14:57:30.930Z,12.70
2023-04-07T15:00:53.868Z,12.50
2023-04-07T15:04:15.471Z,12.50
2023-04-07T15:07:37.088Z,12.70
2023-04-07T15:10:58.662Z,12.70
2023-04-07T15:14:20.245Z,12.80
2023-04-07T15:17:44.942Z,12.70
2023-04-07T15:21:06.959Z,12.70
2023-04-07T15:24:28.567Z,12.60
2023-04-07T15:27:51.180Z,12.40
2023-04-07T15:31:14.158Z,12.40
2023-04-07T15:34:37.089Z,12.40
2023-04-07T15:37:59.104Z,12.30
2023-04-07T15:41:20.900Z,12.10
2023-04-07T15:44:43.729Z,12.00
2023-04-07T15:48:05.624Z,11.80
2023-04-07T15:51:28.732Z,11.60
2023-04-07T15:54:53.356Z,11.50
2023-04-07T15:58:15.450Z,11.50
2023-04-07T16:01:37.590Z,11.40
2023-04-07T16:04:59.678Z,11.40
2023-04-07T16:08:22.668Z,11.30
2023-04-07T16:11:44.809Z,11.20
2023-04-07T16:15:07.055Z,11.20
2023-04-07T16:18:29.116Z,11.10
2023-04-07T16:21:50.816Z,11.10
2023-04-07T16:25:14.761Z,11.10
2023-04-07T16:28:36.692Z,11.00
2023-04-07T16:31:58.319Z,10.90
2023-04-07T16:35:20.532Z,10.90
2023-04-07T16:38:43.549Z,10.80
2023-04-07T16:42:06.855Z,10.80
2023-04-07T16:45:28.806Z,10.90
2023-04-07T16:48:50.614Z,10.90
2023-04-07T16:52:12.275Z,10.90
2023-04-07T16:55:35.466Z,11.00
2023-04-07T16:58:58.470Z,11.00
2023-04-07T17:02:20.539Z,11.00
2023-04-07T17:05:43.380Z,11.00
2023-04-07T17:09:05.150Z,10.90
2023-04-07T17:12:26.784Z,10.80
2023-04-07T17:15:50.592Z,10.70
2023-04-07T17:19:12.348Z,10.70
2023-04-07T17:22:33.900Z,10.70
2023-04-07T17:25:59.246Z,10.70
2023-04-07T17:33:08.438Z,10.70
2023-04-07T17:36:30.621Z,10.60
2023-04-07T17:39:52.248Z,10.60
2023-04-07T17:43:13.804Z,10.50
2023-04-07T17:49:58.678Z,9.60
2023-04-07T17:53:20.302Z,8.80
2023-04-07T17:56:42.374Z,8.40
2023-04-07T18:00:05.633Z,8.40
2023-04-07T18:03:28.370Z,8.30
2023-04-07T18:06:55.827Z,8.30
2023-04-07T18:10:17.500Z,8.30
2023-04-07T18:13:39.100Z,8.20
2023-04-07T18:17:00.677Z,8.10
2023-04-07T18:20:22.274Z,8.10
2023-04-07T18:23:45.882Z,8.10
2023-04-07T18:27:07.539Z,8.10
2023-04-07T18:30:29.140Z,8.00
2023-04-07T18:33:50.938Z,7.80
2023-04-07T18:37:12.808Z,7.60
2023-04-07T18:40:35.709Z,7.60
2023-04-07T18:44:00.183Z,7.70
2023-04-07T18:47:21.731Z,7.70
2023-04-07T18:50:43.626Z,7.70
2023-04-07T18:54:05.494Z,7.70
2023-04-07T18:57:31.723Z,7.70
2023-04-07T19:00:55.333Z,7.70
2023-04-07T19:04:17.576Z,7.80
2023-04-07T19:07:39.191Z,7.80
2023-04-07T19:11:00.751Z,7.80
2023-04-07T19:14:23.640Z,7.80
2023-04-07T19:17:45.255Z,7.80
2023-04-07T19:21:06.893Z,7.80
2023-04-07T19:24:28.437Z,7.80
2023-04-07T19:27:50.102Z,7.80
2023-04-07T19:31:12.984Z,7.70
2023-04-07T19:34:34.552Z,7.70
2023-04-07T19:37:56.108Z,7.80
2023-04-07T19:41:17.664Z,7.70
2023-04-07T19:44:39.209Z,7.70
2023-04-07T19:48:02.238Z,7.70
2023-04-07T19:51:23.836Z,7.70
2023-04-07T19:54:45.458Z,7.70
2023-04-07T19:58:07.018Z,7.60
2023-04-07T20:01:28.647Z,7.60
2023-04-07T20:04:51.632Z,7.60
2023-04-07T20:08:13.249Z,7.60
2023-04-07T20:11:34.817Z,7.50
2023-04-07T20:14:56.394Z,7.50
2023-04-07T20:18:17.969Z,7.50
2023-04-07T20:21:40.884Z,7.40
2023-04-07T20:25:02.472Z,7.40
2023-04-07T20:28:24.035Z,7.40
2023-04-07T20:31:45.597Z,7.40
2023-04-07T20:35:07.842Z,7.40
2023-04-07T20:38:30.757Z,7.50
2023-04-07T20:41:52.311Z,7.60
2023-04-07T20:45:13.888Z,7.60
2023-04-07T20:48:35.443Z,7.60
2023-04-07T20:51:57.075Z,7.70
2023-04-07T20:55:20.105Z,7.70
2023-04-07T20:58:41.677Z,7.70
2023-04-07T21:02:03.393Z,7.70
2023-04-07T21:05:25.080Z,7.80
2023-04-07T21:08:46.782Z,7.70
2023-04-07T21:12:09.845Z,7.70
2023-04-07T21:15:31.479Z,7.80
2023-04-07T21:18:53.130Z,7.70
2023-04-07T21:22:14.744Z,7.70
2023-04-07T21:25:36.717Z,7.60
2023-04-07T21:28:59.598Z,7.50
2023-04-07T21:32:21.191Z,7.40
2023-04-07T21:35:42.811Z,7.40
2023-04-07T21:39:04.399Z,7.40
2023-04-07T21:42:25.934Z,7.40
2023-04-07T21:45:49.019Z,7.40
2023-04-07T21:49:10.582Z,7.40
2023-04-07T21:52:32.138Z,7.40
2023-04-07T21:55:53.698Z,7.40
2023-04-07T21:59:15.344Z,7.40
2023-04-07T22:02:38.426Z,7.40
2023-04-07T22:06:00.447Z,7.40
2023-04-07T22:09:22.947Z,7.40
2023-04-07T22:12:44.812Z,7.40
2023-04-07T22:16:06.520Z,7.30
2023-04-07T22:19:29.489Z,7.30
2023-04-07T22:22:51.176Z,7.20
2023-04-07T22:26:12.967Z,7.10
2023-04-07T22:29:35.271Z,7.10
2023-04-07T22:32:56.963Z,7.20
2023-04-07T22:36:20.092Z,7.20
2023-04-07T22:39:41.770Z,7.20
2023-04-07T22:43:03.420Z,7.30
2023-04-07T22:46:25.154Z,7.30
2023-04-07T22:49:46.769Z,7.40
2023-04-07T22:53:11.494Z,7.50
2023-04-07T22:56:33.474Z,7.50
2023-04-07T22:59:56.511Z,7.50
2023-04-07T23:03:24.846Z,7.50
2023-04-07T23:06:48.798Z,7.60
2023-04-07T23:10:12.653Z,7.60
2023-04-07T23:13:35.559Z,7.60
2023-04-07T23:16:57.666Z,7.60
2023-04-07T23:20:26.798Z,7.60
2023-04-07T23:23:49.051Z,7.60
2023-04-07T23:27:12.243Z,7.50
2023-04-07T23:30:34.352Z,7.50
2023-04-07T23:33:56.409Z,7.50
2023-04-07T23:37:17.964Z,7.50
2023-04-07T23:40:39.859Z,7.50
2023-04-07T23:44:06.505Z,7.50
2023-04-07T23:47:29.127Z,7.50
2023-04-07T23:50:51.835Z,7.60
2023-04-07T23:54:14.183Z,7.60
2023-04-07T23:57:37.471Z,7.60
